sensor_id;sensor_type;location;lat;lon;timestamp;P1;durP1;ratioP1;P2;durP2;ratioP2
54937;SDS011;52756;52.826;6.214;2023-01-19T00:02:18;2.97;;;0.40;;
54937;SDS011;52756;52.826;6.214;2023-01-19T00:04:44;1.13;;;0.57;;
54937;SDS011;52756;52.826;6.214;2023-01-19T00:07:10;2.33;;;0.43;;
54937;SDS011;52756;52.826;6.214;2023-01-19T00:09:36;1.85;;;0.50;;
54937;SDS011;52756;52.826;6.214;2023-01-19T00:12:10;2.50;;;0.50;;
54937;SDS011;52756;52.826;6.214;2023-01-19T00:14:36;1.85;;;0.50;;
54937;SDS011;52756;52.826;6.214;2023-01-19T00:17:01;2.33;;;0.30;;
54937;SDS011;52756;52.826;6.214;2023-01-19T00:19:27;1.38;;;0.50;;
54937;SDS011;52756;52.826;6.214;2023-01-19T00:21:53;2.03;;;0.68;;
54937;SDS011;52756;52.826;6.214;2023-01-19T00:24:19;1.45;;;0.40;;
54937;SDS011;52756;52.826;6.214;2023-01-19T00:26:45;1.92;;;0.60;;
54937;SDS011;52756;52.826;6.214;2023-01-19T00:29:11;3.95;;;1.20;;
54937;SDS011;52756;52.826;6.214;2023-01-19T00:31:38;3.17;;;0.60;;
54937;SDS011;52756;52.826;6.214;2023-01-19T00:34:04;2.72;;;0.82;;
54937;SDS011;52756;52.826;6.214;2023-01-19T00:36:30;1.42;;;0.73;;
54937;SDS011;52756;52.826;6.214;2023-01-19T00:38:56;1.90;;;1.08;;
54937;SDS011;52756;52.826;6.214;2023-01-19T00:41:22;1.42;;;0.85;;
54937;SDS011;52756;52.826;6.214;2023-01-19T00:44:08;2.28;;;1.02;;
54937;SDS011;52756;52.826;6.214;2023-01-19T00:46:34;1.55;;;1.00;;
54937;SDS011;52756;52.826;6.214;2023-01-19T00:49:00;3.17;;;0.90;;
54937;SDS011;52756;52.826;6.214;2023-01-19T00:51:26;2.78;;;1.00;;
54937;SDS011;52756;52.826;6.214;2023-01-19T00:53:51;1.65;;;1.02;;
54937;SDS011;52756;52.826;6.214;2023-01-19T00:56:17;1.20;;;0.95;;
54937;SDS011;52756;52.826;6.214;2023-01-19T00:58:43;1.90;;;1.10;;
54937;SDS011;52756;52.826;6.214;2023-01-19T01:01:11;2.30;;;1.35;;
54937;SDS011;52756;52.826;6.214;2023-01-19T01:03:37;1.83;;;1.13;;
54937;SDS011;52756;52.826;6.214;2023-01-19T01:06:03;1.70;;;1.17;;
54937;SDS011;52756;52.826;6.214;2023-01-19T01:08:32;2.08;;;1.30;;
54937;SDS011;52756;52.826;6.214;2023-01-19T01:10:58;1.67;;;1.13;;
54937;SDS011;52756;52.826;6.214;2023-01-19T01:13:24;2.00;;;1.20;;
54937;SDS011;52756;52.826;6.214;2023-01-19T01:15:51;2.60;;;1.15;;
54937;SDS011;52756;52.826;6.214;2023-01-19T01:18:17;3.97;;;1.33;;
54937;SDS011;52756;52.826;6.214;2023-01-19T01:20:44;2.47;;;1.27;;
54937;SDS011;52756;52.826;6.214;2023-01-19T01:23:09;2.58;;;1.42;;
54937;SDS011;52756;52.826;6.214;2023-01-19T01:25:35;2.45;;;1.70;;
54937;SDS011;52756;52.826;6.214;2023-01-19T01:28:03;3.10;;;1.90;;
54937;SDS011;52756;52.826;6.214;2023-01-19T01:30:31;3.75;;;2.08;;
54937;SDS011;52756;52.826;6.214;2023-01-19T01:32:57;4.32;;;2.30;;
54937;SDS011;52756;52.826;6.214;2023-01-19T01:35:22;3.67;;;2.50;;
54937;SDS011;52756;52.826;6.214;2023-01-19T01:37:48;3.25;;;2.20;;
54937;SDS011;52756;52.826;6.214;2023-01-19T01:40:14;2.88;;;2.10;;
54937;SDS011;52756;52.826;6.214;2023-01-19T01:42:41;2.65;;;2.17;;
54937;SDS011;52756;52.826;6.214;2023-01-19T01:50:33;4.43;;;2.83;;
54937;SDS011;52756;52.826;6.214;2023-01-19T01:53:10;3.75;;;2.70;;
54937;SDS011;52756;52.826;6.214;2023-01-19T01:55:39;4.40;;;2.75;;
54937;SDS011;52756;52.826;6.214;2023-01-19T01:58:09;4.47;;;2.80;;
54937;SDS011;52756;52.826;6.214;2023-01-19T02:00:36;3.67;;;2.80;;
54937;SDS011;52756;52.826;6.214;2023-01-19T02:03:21;3.50;;;3.00;;
54937;SDS011;52756;52.826;6.214;2023-01-19T02:05:49;5.75;;;3.50;;
54937;SDS011;52756;52.826;6.214;2023-01-19T02:08:24;7.50;;;4.63;;
54937;SDS011;52756;52.826;6.214;2023-01-19T02:11:15;4.82;;;3.67;;
54937;SDS011;52756;52.826;6.214;2023-01-19T02:13:59;6.10;;;4.40;;
54937;SDS011;52756;52.826;6.214;2023-01-19T02:16:28;5.35;;;4.38;;
54937;SDS011;52756;52.826;6.214;2023-01-19T02:18:55;6.60;;;4.30;;
54937;SDS011;52756;52.826;6.214;2023-01-19T02:23:56;6.73;;;4.87;;
54937;SDS011;52756;52.826;6.214;2023-01-19T02:26:25;6.22;;;4.40;;
54937;SDS011;52756;52.826;6.214;2023-01-19T02:29:03;6.15;;;3.83;;
54937;SDS011;52756;52.826;6.214;2023-01-19T02:31:32;5.80;;;3.67;;
54937;SDS011;52756;52.826;6.214;2023-01-19T02:33:59;5.40;;;4.13;;
54937;SDS011;52756;52.826;6.214;2023-01-19T02:39:14;4.88;;;3.10;;
54937;SDS011;52756;52.826;6.214;2023-01-19T02:41:53;5.38;;;3.08;;
54937;SDS011;52756;52.826;6.214;2023-01-19T02:44:23;4.20;;;2.42;;
54937;SDS011;52756;52.826;6.214;2023-01-19T02:46:52;5.95;;;3.10;;
54937;SDS011;52756;52.826;6.214;2023-01-19T02:49:18;3.58;;;2.45;;
54937;SDS011;52756;52.826;6.214;2023-01-19T02:51:44;3.42;;;2.13;;
54937;SDS011;52756;52.826;6.214;2023-01-19T03:10:07;4.20;;;1.73;;
54937;SDS011;52756;52.826;6.214;2023-01-19T03:13:02;3.90;;;1.50;;
54937;SDS011;52756;52.826;6.214;2023-01-19T03:18:01;5.15;;;0.98;;
54937;SDS011;52756;52.826;6.214;2023-01-19T03:20:30;4.93;;;1.10;;
54937;SDS011;52756;52.826;6.214;2023-01-19T03:23:00;2.97;;;0.60;;
54937;SDS011;52756;52.826;6.214;2023-01-19T03:25:30;2.22;;;0.50;;
54937;SDS011;52756;52.826;6.214;2023-01-19T03:28:00;2.85;;;0.52;;
54937;SDS011;52756;52.826;6.214;2023-01-19T03:30:28;3.30;;;0.82;;
54937;SDS011;52756;52.826;6.214;2023-01-19T03:33:24;2.40;;;0.80;;
54937;SDS011;52756;52.826;6.214;2023-01-19T03:35:55;3.60;;;0.90;;
54937;SDS011;52756;52.826;6.214;2023-01-19T03:38:27;3.13;;;0.98;;
54937;SDS011;52756;52.826;6.214;2023-01-19T03:41:03;0.40;;;0.40;;
54937;SDS011;52756;52.826;6.214;2023-01-19T03:43:32;1.35;;;0.50;;
54937;SDS011;52756;52.826;6.214;2023-01-19T03:46:00;1.10;;;0.40;;
54937;SDS011;52756;52.826;6.214;2023-01-19T03:48:28;0.82;;;0.52;;
54937;SDS011;52756;52.826;6.214;2023-01-19T03:50:55;1.60;;;0.43;;
54937;SDS011;52756;52.826;6.214;2023-01-19T03:53:21;0.60;;;0.50;;
54937;SDS011;52756;52.826;6.214;2023-01-19T03:55:47;1.58;;;0.63;;
54937;SDS011;52756;52.826;6.214;2023-01-19T03:58:15;1.88;;;0.60;;
54937;SDS011;52756;52.826;6.214;2023-01-19T04:00:41;3.38;;;0.60;;
54937;SDS011;52756;52.826;6.214;2023-01-19T04:03:10;1.08;;;0.40;;
54937;SDS011;52756;52.826;6.214;2023-01-19T04:05:38;1.70;;;0.52;;
54937;SDS011;52756;52.826;6.214;2023-01-19T04:08:04;1.75;;;0.88;;
54937;SDS011;52756;52.826;6.214;2023-01-19T04:10:30;1.15;;;0.40;;
54937;SDS011;52756;52.826;6.214;2023-01-19T04:12:59;2.00;;;0.70;;
54937;SDS011;52756;52.826;6.214;2023-01-19T04:15:25;0.90;;;0.57;;
54937;SDS011;52756;52.826;6.214;2023-01-19T04:17:52;2.15;;;1.00;;
54937;SDS011;52756;52.826;6.214;2023-01-19T04:20:18;1.02;;;0.60;;
54937;SDS011;52756;52.826;6.214;2023-01-19T04:22:45;3.20;;;0.80;;
54937;SDS011;52756;52.826;6.214;2023-01-19T04:25:11;2.10;;;0.77;;
54937;SDS011;52756;52.826;6.214;2023-01-19T04:27:37;3.35;;;0.88;;
54937;SDS011;52756;52.826;6.214;2023-01-19T04:30:03;2.47;;;1.10;;
54937;SDS011;52756;52.826;6.214;2023-01-19T04:32:29;6.55;;;1.20;;
54937;SDS011;52756;52.826;6.214;2023-01-19T04:34:57;3.38;;;1.25;;
54937;SDS011;52756;52.826;6.214;2023-01-19T04:37:22;2.85;;;0.98;;
54937;SDS011;52756;52.826;6.214;2023-01-19T04:39:48;7.28;;;1.50;;
54937;SDS011;52756;52.826;6.214;2023-01-19T04:42:14;6.38;;;1.23;;
54937;SDS011;52756;52.826;6.214;2023-01-19T04:44:40;6.57;;;1.55;;
54937;SDS011;52756;52.826;6.214;2023-01-19T04:47:06;8.88;;;1.27;;
54937;SDS011;52756;52.826;6.214;2023-01-19T04:49:32;8.00;;;1.17;;
54937;SDS011;52756;52.826;6.214;2023-01-19T04:52:01;9.93;;;1.55;;
54937;SDS011;52756;52.826;6.214;2023-01-19T04:54:30;8.02;;;1.20;;
54937;SDS011;52756;52.826;6.214;2023-01-19T04:56:56;7.75;;;1.50;;
54937;SDS011;52756;52.826;6.214;2023-01-19T04:59:22;8.68;;;1.20;;
54937;SDS011;52756;52.826;6.214;2023-01-19T05:01:48;4.68;;;0.68;;
54937;SDS011;52756;52.826;6.214;2023-01-19T05:04:13;4.07;;;0.75;;
54937;SDS011;52756;52.826;6.214;2023-01-19T05:06:39;7.18;;;0.98;;
54937;SDS011;52756;52.826;6.214;2023-01-19T05:09:05;3.65;;;0.70;;
54937;SDS011;52756;52.826;6.214;2023-01-19T05:11:33;6.53;;;0.90;;
54937;SDS011;52756;52.826;6.214;2023-01-19T05:13:59;9.45;;;1.95;;
54937;SDS011;52756;52.826;6.214;2023-01-19T05:16:25;5.03;;;0.52;;
54937;SDS011;52756;52.826;6.214;2023-01-19T05:18:51;7.82;;;1.52;;
54937;SDS011;52756;52.826;6.214;2023-01-19T05:21:16;3.63;;;0.65;;
54937;SDS011;52756;52.826;6.214;2023-01-19T05:23:42;5.03;;;1.02;;
54937;SDS011;52756;52.826;6.214;2023-01-19T05:26:09;4.65;;;1.08;;
54937;SDS011;52756;52.826;6.214;2023-01-19T05:28:34;4.15;;;0.60;;
54937;SDS011;52756;52.826;6.214;2023-01-19T05:31:01;5.72;;;0.40;;
54937;SDS011;52756;52.826;6.214;2023-01-19T05:33:27;3.30;;;0.80;;
54937;SDS011;52756;52.826;6.214;2023-01-19T05:35:53;7.68;;;1.00;;
54937;SDS011;52756;52.826;6.214;2023-01-19T05:38:19;5.13;;;1.08;;
54937;SDS011;52756;52.826;6.214;2023-01-19T05:40:46;5.68;;;1.00;;
54937;SDS011;52756;52.826;6.214;2023-01-19T05:43:12;7.22;;;0.95;;
54937;SDS011;52756;52.826;6.214;2023-01-19T05:45:39;5.53;;;0.50;;
54937;SDS011;52756;52.826;6.214;2023-01-19T05:48:06;3.58;;;0.70;;
54937;SDS011;52756;52.826;6.214;2023-01-19T05:50:32;2.78;;;0.60;;
54937;SDS011;52756;52.826;6.214;2023-01-19T05:52:59;6.90;;;1.00;;
54937;SDS011;52756;52.826;6.214;2023-01-19T05:55:25;3.92;;;0.85;;
54937;SDS011;52756;52.826;6.214;2023-01-19T05:57:51;5.60;;;0.77;;
54937;SDS011;52756;52.826;6.214;2023-01-19T06:00:17;4.22;;;0.77;;
54937;SDS011;52756;52.826;6.214;2023-01-19T06:02:43;1.48;;;0.47;;
54937;SDS011;52756;52.826;6.214;2023-01-19T06:05:10;5.50;;;1.00;;
54937;SDS011;52756;52.826;6.214;2023-01-19T06:07:36;3.17;;;0.68;;
54937;SDS011;52756;52.826;6.214;2023-01-19T06:10:02;5.50;;;1.00;;
54937;SDS011;52756;52.826;6.214;2023-01-19T06:12:28;10.13;;;1.40;;
54937;SDS011;52756;52.826;6.214;2023-01-19T06:14:53;5.75;;;0.80;;
54937;SDS011;52756;52.826;6.214;2023-01-19T06:17:19;6.43;;;0.88;;
54937;SDS011;52756;52.826;6.214;2023-01-19T06:19:45;6.78;;;1.13;;
54937;SDS011;52756;52.826;6.214;2023-01-19T06:22:10;12.70;;;1.00;;
54937;SDS011;52756;52.826;6.214;2023-01-19T06:24:36;10.35;;;3.10;;
54937;SDS011;52756;52.826;6.214;2023-01-19T06:27:02;10.40;;;2.25;;
54937;SDS011;52756;52.826;6.214;2023-01-19T06:29:28;15.90;;;5.68;;
54937;SDS011;52756;52.826;6.214;2023-01-19T06:31:53;11.95;;;3.53;;
54937;SDS011;52756;52.826;6.214;2023-01-19T06:34:19;9.43;;;3.22;;
54937;SDS011;52756;52.826;6.214;2023-01-19T06:36:45;11.13;;;2.50;;
54937;SDS011;52756;52.826;6.214;2023-01-19T06:39:11;10.68;;;2.03;;
54937;SDS011;52756;52.826;6.214;2023-01-19T06:41:37;12.93;;;2.05;;
54937;SDS011;52756;52.826;6.214;2023-01-19T06:44:03;14.70;;;2.47;;
54937;SDS011;52756;52.826;6.214;2023-01-19T06:46:29;9.32;;;1.85;;
54937;SDS011;52756;52.826;6.214;2023-01-19T06:48:55;9.57;;;1.75;;
54937;SDS011;52756;52.826;6.214;2023-01-19T06:51:21;8.88;;;1.60;;
54937;SDS011;52756;52.826;6.214;2023-01-19T06:53:47;13.25;;;2.28;;
54937;SDS011;52756;52.826;6.214;2023-01-19T06:56:13;12.63;;;2.53;;
54937;SDS011;52756;52.826;6.214;2023-01-19T06:58:39;13.23;;;2.40;;
54937;SDS011;52756;52.826;6.214;2023-01-19T07:01:06;14.52;;;1.98;;
54937;SDS011;52756;52.826;6.214;2023-01-19T07:03:32;9.38;;;1.77;;
54937;SDS011;52756;52.826;6.214;2023-01-19T07:05:58;11.85;;;1.48;;
54937;SDS011;52756;52.826;6.214;2023-01-19T07:08:27;11.32;;;2.53;;
54937;SDS011;52756;52.826;6.214;2023-01-19T07:11:03;10.55;;;2.38;;
54937;SDS011;52756;52.826;6.214;2023-01-19T07:13:31;14.25;;;2.13;;
54937;SDS011;52756;52.826;6.214;2023-01-19T07:15:57;11.80;;;2.13;;
54937;SDS011;52756;52.826;6.214;2023-01-19T07:18:27;8.07;;;1.77;;
54937;SDS011;52756;52.826;6.214;2023-01-19T07:20:53;7.50;;;1.48;;
54937;SDS011;52756;52.826;6.214;2023-01-19T07:23:21;6.40;;;1.65;;
54937;SDS011;52756;52.826;6.214;2023-01-19T07:25:47;11.50;;;1.98;;
54937;SDS011;52756;52.826;6.214;2023-01-19T07:28:13;9.50;;;1.70;;
54937;SDS011;52756;52.826;6.214;2023-01-19T07:30:40;10.65;;;2.00;;
54937;SDS011;52756;52.826;6.214;2023-01-19T07:33:10;10.45;;;1.83;;
54937;SDS011;52756;52.826;6.214;2023-01-19T07:35:36;11.98;;;1.60;;
54937;SDS011;52756;52.826;6.214;2023-01-19T07:38:02;7.93;;;1.40;;
54937;SDS011;52756;52.826;6.214;2023-01-19T07:40:28;15.32;;;2.33;;
54937;SDS011;52756;52.826;6.214;2023-01-19T07:42:54;14.50;;;1.55;;
54937;SDS011;52756;52.826;6.214;2023-01-19T07:45:19;11.60;;;1.52;;
54937;SDS011;52756;52.826;6.214;2023-01-19T07:47:46;9.27;;;1.80;;
54937;SDS011;52756;52.826;6.214;2023-01-19T07:50:13;11.35;;;1.70;;
54937;SDS011;52756;52.826;6.214;2023-01-19T07:52:41;11.50;;;1.85;;
54937;SDS011;52756;52.826;6.214;2023-01-19T07:55:06;7.93;;;1.42;;
54937;SDS011;52756;52.826;6.214;2023-01-19T07:57:33;11.65;;;1.88;;
54937;SDS011;52756;52.826;6.214;2023-01-19T07:59:59;6.07;;;1.55;;
54937;SDS011;52756;52.826;6.214;2023-01-19T08:02:25;15.05;;;1.70;;
54937;SDS011;52756;52.826;6.214;2023-01-19T08:04:50;14.93;;;2.40;;
54937;SDS011;52756;52.826;6.214;2023-01-19T08:07:16;20.23;;;3.63;;
54937;SDS011;52756;52.826;6.214;2023-01-19T08:09:42;14.93;;;2.17;;
54937;SDS011;52756;52.826;6.214;2023-01-19T08:12:08;12.00;;;1.77;;
54937;SDS011;52756;52.826;6.214;2023-01-19T08:14:33;9.55;;;2.97;;
54937;SDS011;52756;52.826;6.214;2023-01-19T08:16:59;14.07;;;2.10;;
54937;SDS011;52756;52.826;6.214;2023-01-19T08:19:26;14.23;;;1.83;;
54937;SDS011;52756;52.826;6.214;2023-01-19T08:21:52;7.93;;;2.00;;
54937;SDS011;52756;52.826;6.214;2023-01-19T08:24:19;12.30;;;2.08;;
54937;SDS011;52756;52.826;6.214;2023-01-19T08:26:47;7.50;;;1.42;;
54937;SDS011;52756;52.826;6.214;2023-01-19T08:29:13;11.00;;;1.95;;
54937;SDS011;52756;52.826;6.214;2023-01-19T08:31:39;13.27;;;2.33;;
54937;SDS011;52756;52.826;6.214;2023-01-19T08:34:05;10.63;;;2.58;;
54937;SDS011;52756;52.826;6.214;2023-01-19T08:36:31;18.15;;;2.58;;
54937;SDS011;52756;52.826;6.214;2023-01-19T08:38:57;7.75;;;1.40;;
54937;SDS011;52756;52.826;6.214;2023-01-19T08:41:23;11.02;;;1.83;;
54937;SDS011;52756;52.826;6.214;2023-01-19T08:43:48;12.18;;;1.77;;
54937;SDS011;52756;52.826;6.214;2023-01-19T08:46:14;17.02;;;2.40;;
54937;SDS011;52756;52.826;6.214;2023-01-19T08:48:41;14.32;;;2.08;;
54937;SDS011;52756;52.826;6.214;2023-01-19T08:51:09;10.10;;;1.60;;
54937;SDS011;52756;52.826;6.214;2023-01-19T08:53:36;8.55;;;1.60;;
54937;SDS011;52756;52.826;6.214;2023-01-19T08:56:02;8.65;;;1.63;;
54937;SDS011;52756;52.826;6.214;2023-01-19T08:58:28;10.77;;;1.90;;
54937;SDS011;52756;52.826;6.214;2023-01-19T09:00:54;11.00;;;1.88;;
54937;SDS011;52756;52.826;6.214;2023-01-19T09:03:20;10.00;;;1.35;;
54937;SDS011;52756;52.826;6.214;2023-01-19T09:05:46;9.43;;;1.50;;
54937;SDS011;52756;52.826;6.214;2023-01-19T09:08:13;8.43;;;1.75;;
54937;SDS011;52756;52.826;6.214;2023-01-19T09:10:43;8.85;;;2.00;;
54937;SDS011;52756;52.826;6.214;2023-01-19T09:13:12;9.27;;;1.88;;
54937;SDS011;52756;52.826;6.214;2023-01-19T09:15:39;8.98;;;1.83;;
54937;SDS011;52756;52.826;6.214;2023-01-19T09:18:06;10.73;;;1.70;;
54937;SDS011;52756;52.826;6.214;2023-01-19T09:20:41;9.85;;;1.42;;
54937;SDS011;52756;52.826;6.214;2023-01-19T09:23:08;6.30;;;1.17;;
54937;SDS011;52756;52.826;6.214;2023-01-19T09:25:39;11.68;;;1.95;;
54937;SDS011;52756;52.826;6.214;2023-01-19T09:28:07;6.95;;;1.45;;
54937;SDS011;52756;52.826;6.214;2023-01-19T09:30:35;10.68;;;1.65;;
54937;SDS011;52756;52.826;6.214;2023-01-19T09:33:03;10.90;;;2.10;;
54937;SDS011;52756;52.826;6.214;2023-01-19T09:35:38;10.23;;;1.92;;
54937;SDS011;52756;52.826;6.214;2023-01-19T09:38:04;8.23;;;1.45;;
54937;SDS011;52756;52.826;6.214;2023-01-19T09:40:33;10.85;;;2.03;;
54937;SDS011;52756;52.826;6.214;2023-01-19T09:45:38;9.85;;;1.30;;
54937;SDS011;52756;52.826;6.214;2023-01-19T09:48:43;7.32;;;1.35;;
54937;SDS011;52756;52.826;6.214;2023-01-19T09:54:04;12.65;;;2.20;;
54937;SDS011;52756;52.826;6.214;2023-01-19T09:59:24;14.60;;;2.10;;
54937;SDS011;52756;52.826;6.214;2023-01-19T10:04:58;11.25;;;1.85;;
54937;SDS011;52756;52.826;6.214;2023-01-19T10:10:11;11.15;;;1.63;;
54937;SDS011;52756;52.826;6.214;2023-01-19T10:18:36;12.57;;;2.58;;
54937;SDS011;52756;52.826;6.214;2023-01-19T10:21:19;12.55;;;1.83;;
54937;SDS011;52756;52.826;6.214;2023-01-19T10:23:51;8.48;;;1.98;;
54937;SDS011;52756;52.826;6.214;2023-01-19T10:26:41;11.43;;;1.65;;
54937;SDS011;52756;52.826;6.214;2023-01-19T10:32:09;7.13;;;1.67;;
54937;SDS011;52756;52.826;6.214;2023-01-19T10:34:45;7.18;;;1.30;;
54937;SDS011;52756;52.826;6.214;2023-01-19T10:39:51;10.32;;;1.70;;
54937;SDS011;52756;52.826;6.214;2023-01-19T10:42:27;5.65;;;1.25;;
54937;SDS011;52756;52.826;6.214;2023-01-19T10:44:54;7.03;;;1.58;;
54937;SDS011;52756;52.826;6.214;2023-01-19T10:47:20;7.72;;;1.15;;
54937;SDS011;52756;52.826;6.214;2023-01-19T10:49:54;6.65;;;2.03;;
54937;SDS011;52756;52.826;6.214;2023-01-19T10:54:59;10.52;;;1.60;;
54937;SDS011;52756;52.826;6.214;2023-01-19T10:57:28;8.65;;;1.33;;
54937;SDS011;52756;52.826;6.214;2023-01-19T10:59:57;8.15;;;1.30;;
54937;SDS011;52756;52.826;6.214;2023-01-19T11:02:24;9.30;;;1.92;;
54937;SDS011;52756;52.826;6.214;2023-01-19T11:04:54;7.82;;;1.45;;
54937;SDS011;52756;52.826;6.214;2023-01-19T11:12:39;6.03;;;1.10;;
54937;SDS011;52756;52.826;6.214;2023-01-19T11:18:21;6.30;;;1.27;;
54937;SDS011;52756;52.826;6.214;2023-01-19T11:20:56;7.65;;;1.40;;
54937;SDS011;52756;52.826;6.214;2023-01-19T11:26:01;7.93;;;1.48;;
54937;SDS011;52756;52.826;6.214;2023-01-19T11:31:01;6.18;;;1.75;;
54937;SDS011;52756;52.826;6.214;2023-01-19T11:33:42;6.95;;;1.40;;
54937;SDS011;52756;52.826;6.214;2023-01-19T11:36:16;7.50;;;1.23;;
54937;SDS011;52756;52.826;6.214;2023-01-19T11:38:43;8.52;;;1.20;;
54937;SDS011;52756;52.826;6.214;2023-01-19T11:41:17;6.18;;;1.13;;
54937;SDS011;52756;52.826;6.214;2023-01-19T11:43:50;6.63;;;1.13;;
54937;SDS011;52756;52.826;6.214;2023-01-19T11:46:17;5.32;;;0.82;;
54937;SDS011;52756;52.826;6.214;2023-01-19T11:48:49;6.88;;;1.20;;
54937;SDS011;52756;52.826;6.214;2023-01-19T11:51:27;6.78;;;1.27;;
54937;SDS011;52756;52.826;6.214;2023-01-19T11:53:59;9.57;;;1.67;;
54937;SDS011;52756;52.826;6.214;2023-01-19T11:56:31;6.85;;;1.08;;
54937;SDS011;52756;52.826;6.214;2023-01-19T11:58:57;6.57;;;0.77;;
54937;SDS011;52756;52.826;6.214;2023-01-19T12:03:58;8.43;;;1.00;;
54937;SDS011;52756;52.826;6.214;2023-01-19T12:06:28;7.78;;;1.67;;
54937;SDS011;52756;52.826;6.214;2023-01-19T12:11:38;5.45;;;0.90;;
54937;SDS011;52756;52.826;6.214;2023-01-19T12:14:16;6.28;;;1.23;;
54937;SDS011;52756;52.826;6.214;2023-01-19T12:16:46;7.38;;;0.88;;
54937;SDS011;52756;52.826;6.214;2023-01-19T12:19:17;5.10;;;1.05;;
54937;SDS011;52756;52.826;6.214;2023-01-19T12:21:47;8.23;;;1.10;;
54937;SDS011;52756;52.826;6.214;2023-01-19T12:24:21;6.10;;;1.20;;
54937;SDS011;52756;52.826;6.214;2023-01-19T12:26:59;6.05;;;1.20;;
54937;SDS011;52756;52.826;6.214;2023-01-19T12:29:31;4.50;;;0.80;;
54937;SDS011;52756;52.826;6.214;2023-01-19T12:34:46;10.45;;;1.25;;
54937;SDS011;52756;52.826;6.214;2023-01-19T12:42:43;5.95;;;1.23;;
54937;SDS011;52756;52.826;6.214;2023-01-19T12:45:12;11.52;;;1.67;;
54937;SDS011;52756;52.826;6.214;2023-01-19T12:47:48;10.23;;;1.70;;
54937;SDS011;52756;52.826;6.214;2023-01-19T12:50:16;6.18;;;1.25;;
54937;SDS011;52756;52.826;6.214;2023-01-19T12:52:48;3.90;;;0.90;;
54937;SDS011;52756;52.826;6.214;2023-01-19T12:55:23;6.78;;;1.05;;
54937;SDS011;52756;52.826;6.214;2023-01-19T12:58:14;3.30;;;0.88;;
54937;SDS011;52756;52.826;6.214;2023-01-19T13:00:46;4.50;;;0.63;;
54937;SDS011;52756;52.826;6.214;2023-01-19T13:03:40;4.15;;;0.75;;
54937;SDS011;52756;52.826;6.214;2023-01-19T13:05:58;3.38;;;0.60;;
54937;SDS011;52756;52.826;6.214;2023-01-19T13:08:25;2.60;;;0.77;;
54937;SDS011;52756;52.826;6.214;2023-01-19T13:18:44;4.00;;;0.88;;
54937;SDS011;52756;52.826;6.214;2023-01-19T13:21:33;2.97;;;0.65;;
54937;SDS011;52756;52.826;6.214;2023-01-19T13:24:14;4.15;;;0.80;;
54937;SDS011;52756;52.826;6.214;2023-01-19T13:31:47;5.75;;;0.80;;
54937;SDS011;52756;52.826;6.214;2023-01-19T13:34:23;2.75;;;0.50;;
54937;SDS011;52756;52.826;6.214;2023-01-19T13:36:52;3.75;;;0.77;;
54937;SDS011;52756;52.826;6.214;2023-01-19T13:39:25;6.13;;;0.70;;
54937;SDS011;52756;52.826;6.214;2023-01-19T13:42:07;10.07;;;1.30;;
54937;SDS011;52756;52.826;6.214;2023-01-19T13:44:49;3.17;;;0.68;;
54937;SDS011;52756;52.826;6.214;2023-01-19T13:47:20;6.28;;;1.00;;
54937;SDS011;52756;52.826;6.214;2023-01-19T13:49:49;3.25;;;0.80;;
54937;SDS011;52756;52.826;6.214;2023-01-19T13:52:29;4.88;;;1.38;;
54937;SDS011;52756;52.826;6.214;2023-01-19T13:54:56;3.95;;;0.95;;
54937;SDS011;52756;52.826;6.214;2023-01-19T13:57:23;3.08;;;0.77;;
54937;SDS011;52756;52.826;6.214;2023-01-19T14:16:06;5.50;;;1.00;;
54937;SDS011;52756;52.826;6.214;2023-01-19T14:18:37;4.70;;;0.57;;
54937;SDS011;52756;52.826;6.214;2023-01-19T14:21:07;4.00;;;0.68;;
54937;SDS011;52756;52.826;6.214;2023-01-19T14:36:57;3.17;;;0.70;;
54937;SDS011;52756;52.826;6.214;2023-01-19T14:39:24;4.18;;;0.70;;
54937;SDS011;52756;52.826;6.214;2023-01-19T14:41:52;7.38;;;1.20;;
54937;SDS011;52756;52.826;6.214;2023-01-19T14:44:28;6.82;;;0.93;;
54937;SDS011;52756;52.826;6.214;2023-01-19T14:46:59;7.35;;;1.20;;
54937;SDS011;52756;52.826;6.214;2023-01-19T14:49:29;7.30;;;2.30;;
54937;SDS011;52756;52.826;6.214;2023-01-19T14:52:27;8.25;;;2.03;;
54937;SDS011;52756;52.826;6.214;2023-01-19T14:54:56;5.05;;;1.33;;
54937;SDS011;52756;52.826;6.214;2023-01-19T14:57:23;6.85;;;1.52;;
54937;SDS011;52756;52.826;6.214;2023-01-19T14:59:49;9.13;;;0.90;;
54937;SDS011;52756;52.826;6.214;2023-01-19T15:02:16;6.30;;;1.33;;
54937;SDS011;52756;52.826;6.214;2023-01-19T15:04:45;7.90;;;1.48;;
54937;SDS011;52756;52.826;6.214;2023-01-19T15:07:18;11.00;;;2.15;;
54937;SDS011;52756;52.826;6.214;2023-01-19T15:09:45;6.60;;;1.92;;
54937;SDS011;52756;52.826;6.214;2023-01-19T15:12:12;6.57;;;0.95;;
54937;SDS011;52756;52.826;6.214;2023-01-19T15:14:39;8.85;;;1.45;;
54937;SDS011;52756;52.826;6.214;2023-01-19T15:17:05;5.20;;;1.60;;
54937;SDS011;52756;52.826;6.214;2023-01-19T15:19:34;5.95;;;1.40;;
54937;SDS011;52756;52.826;6.214;2023-01-19T15:22:00;3.53;;;1.20;;
54937;SDS011;52756;52.826;6.214;2023-01-19T15:24:25;6.90;;;1.17;;
54937;SDS011;52756;52.826;6.214;2023-01-19T15:26:51;7.75;;;1.85;;
54937;SDS011;52756;52.826;6.214;2023-01-19T15:29:19;4.53;;;0.93;;
54937;SDS011;52756;52.826;6.214;2023-01-19T15:31:48;3.92;;;0.60;;
54937;SDS011;52756;52.826;6.214;2023-01-19T15:34:14;3.78;;;0.57;;
54937;SDS011;52756;52.826;6.214;2023-01-19T15:36:40;6.05;;;1.05;;
54937;SDS011;52756;52.826;6.214;2023-01-19T15:39:06;4.25;;;1.00;;
54937;SDS011;52756;52.826;6.214;2023-01-19T15:41:33;3.47;;;0.60;;
54937;SDS011;52756;52.826;6.214;2023-01-19T15:43:59;6.32;;;0.95;;
54937;SDS011;52756;52.826;6.214;2023-01-19T15:46:25;4.45;;;1.02;;
54937;SDS011;52756;52.826;6.214;2023-01-19T15:48:51;4.07;;;0.93;;
54937;SDS011;52756;52.826;6.214;2023-01-19T15:51:19;5.18;;;0.90;;
54937;SDS011;52756;52.826;6.214;2023-01-19T15:53:46;5.43;;;1.10;;
54937;SDS011;52756;52.826;6.214;2023-01-19T15:56:22;4.63;;;1.00;;
54937;SDS011;52756;52.826;6.214;2023-01-19T15:58:50;4.05;;;0.90;;
54937;SDS011;52756;52.826;6.214;2023-01-19T16:01:18;6.85;;;1.90;;
54937;SDS011;52756;52.826;6.214;2023-01-19T16:03:45;3.92;;;0.93;;
54937;SDS011;52756;52.826;6.214;2023-01-19T16:06:12;4.40;;;0.80;;
54937;SDS011;52756;52.826;6.214;2023-01-19T16:08:40;9.48;;;1.67;;
54937;SDS011;52756;52.826;6.214;2023-01-19T16:11:06;6.32;;;1.38;;
54937;SDS011;52756;52.826;6.214;2023-01-19T16:13:33;4.40;;;1.38;;
54937;SDS011;52756;52.826;6.214;2023-01-19T16:16:00;5.15;;;1.30;;
54937;SDS011;52756;52.826;6.214;2023-01-19T16:18:30;6.05;;;1.40;;
54937;SDS011;52756;52.826;6.214;2023-01-19T16:20:56;2.75;;;0.90;;
54937;SDS011;52756;52.826;6.214;2023-01-19T16:23:22;3.03;;;1.33;;
54937;SDS011;52756;52.826;6.214;2023-01-19T16:25:58;4.90;;;1.92;;
54937;SDS011;52756;52.826;6.214;2023-01-19T16:28:29;5.38;;;1.35;;
54937;SDS011;52756;52.826;6.214;2023-01-19T16:30:55;6.25;;;1.48;;
54937;SDS011;52756;52.826;6.214;2023-01-19T16:33:21;7.00;;;1.40;;
54937;SDS011;52756;52.826;6.214;2023-01-19T16:35:47;6.20;;;1.52;;
54937;SDS011;52756;52.826;6.214;2023-01-19T16:38:13;7.28;;;1.35;;
54937;SDS011;52756;52.826;6.214;2023-01-19T16:40:41;4.63;;;1.73;;
54937;SDS011;52756;52.826;6.214;2023-01-19T16:43:09;6.93;;;1.88;;
54937;SDS011;52756;52.826;6.214;2023-01-19T16:45:36;8.60;;;2.10;;
54937;SDS011;52756;52.826;6.214;2023-01-19T16:48:20;5.85;;;2.00;;
54937;SDS011;52756;52.826;6.214;2023-01-19T16:50:56;11.30;;;3.65;;
54937;SDS011;52756;52.826;6.214;2023-01-19T16:53:23;10.30;;;3.72;;
54937;SDS011;52756;52.826;6.214;2023-01-19T16:55:49;12.30;;;4.32;;
54937;SDS011;52756;52.826;6.214;2023-01-19T16:58:17;12.60;;;4.15;;
54937;SDS011;52756;52.826;6.214;2023-01-19T17:00:43;10.57;;;4.40;;
54937;SDS011;52756;52.826;6.214;2023-01-19T17:03:08;14.60;;;5.95;;